This is the latest recevied weather packets stored in our database for station/object F4CYQ-10. If no packets are shown the sender has not sent any weather packets the latest 10 day(s).
| Time | Temp. | Humidity | Pressure | Rain* | Wind** | Luminosity | Snow |
|---|---|---|---|---|---|---|---|
| 1777663343 | 22.22° C | 56% | 1019.3 hPa | - | - | - | - |
| 1777663038 | 21.67° C | 56% | 1019.3 hPa | - | - | - | - |
| 1777662137 | 21.67° C | 56% | 1019.2 hPa | - | - | - | - |
| 1777661235 | 21.67° C | 56% | 1019.1 hPa | - | - | - | - |
| 1777660334 | 22.78° C | 56% | 1019.1 hPa | - | - | - | - |
| 1777659721 | 22.78° C | 56% | 1019.1 hPa | - | - | - | - |
| 1777658820 | -5° C | 100% | 4.8 hPa | - | - | - | - |
| 1777658498 | 21.67° C | 56% | 1019.2 hPa | - | - | - | - |
| 1777657597 | 22.78° C | 55% | 1019.1 hPa | - | - | - | - |
| 1777656696 | 21.67° C | 56% | 1019.2 hPa | - | - | - | - |
| 1777655796 | 23.33° C | 55% | 1019.2 hPa | - | - | - | - |
| 1777655635 | 21.11° C | 55% | 1019.1 hPa | - | - | - | - |
| 1777654734 | 21.11° C | 54% | 1019.2 hPa | - | - | - | - |
| 1777653833 | 21.67° C | 54% | 1019.2 hPa | - | - | - | - |
| 1777652931 | 21.67° C | 54% | 1019.4 hPa | - | - | - | - |
| 1777652683 | 22.22° C | 55% | 1019.3 hPa | - | - | - | - |
| 1777651782 | 22.22° C | 54% | 1019.3 hPa | - | - | - | - |
| 1777650881 | 22.78° C | 54% | 1019.4 hPa | - | - | - | - |
| 1777649980 | 23.89° C | 54% | 1019.7 hPa | - | - | - | - |
| 1777649793 | 22.78° C | 54% | 1019.6 hPa | - | - | - | - |
| 1777648892 | 22.22° C | 55% | 1019.6 hPa | - | - | - | - |
| 1777647991 | 22.22° C | 55% | 1019.8 hPa | - | - | - | - |
| 1777647090 | 23.33° C | 55% | 1019.9 hPa | - | - | - | - |
| 1777646837 | 22.22° C | 55% | 1020 hPa | - | - | - | - |
| 1777645936 | 22.22° C | 55% | 1020 hPa | - | - | - | - |
* Rain since midnight (hover to see other rain measurements)
** Current wind speed in m/s (hover to see current wind gust speed)